Owensburg, Indiana
Current Conditions -  °F | °C
As of 8:53 PM on Sunday 25 Jan 2015 (Local Time) from KBMG Reporting Station
Haze Haze  
Wind Chill: 23°   Ceiling: 500
Heat Index: 33°   Visibility: 5mi
Dew Point: 32°   Wind: 16mph
Humidity: 96%   Direction: 20°NNE
Pressure: 29.73"   Gusts: 23mph
Location:  38.92°N, 86.73°W
Report Text: KBMG 260153Z 02014G20KT 5SM UP BR OVC005 01/00 A2973 RMK AO2 RAE31UPB31 SLP072 P0001 T00060000 $
Loading
Personal Weather Stations






























Interactive Weather Map New forecast layout! Learn more

10-Day Weather Forecast

Advertisements
Track Severe Weather on mobile